KPOC

Brackett Field Airport

La Verne, California, USA
METAR KPOC 172347Z 26007KT 10SM CLR 26/M03 A3000
Observed Flight Rules
Oct-17 @ 23:47 UTC (58 minutes ago) Visual Flight Rules
Wind Visibility Clouds
260° at 7 knots 10 miles
  • Clear skies
Temperatures Readings
Current 26°C / 79°F
Dewpoint -3°C / 27°F
Humidity 15%
Altimeter 30" Hg
Pressure 1016 hPa
Elevation 308
METAR KPOC 172347Z 26007KT 10SM CLR 26/M03 A3000
Observed Flight Rules
Oct-17 @ 23:47 UTC
(58 minutes ago)
VFR
Wind Visibility
260° at 7 knots 10 miles
Clouds
  • Clear skies
Temperature Dewpoint
26°C / 79°F -3°C / 27°F
Humidity Altimeter Pressure
15% 30" Hg 1016 hPa